createdAt,value
2023-02-09T00:01:30.902Z,18.50
2023-02-09T00:04:00.067Z,18.30
2023-02-09T00:06:29.963Z,18.20
2023-02-09T00:08:58.855Z,18.57
2023-02-09T00:11:42.855Z,17.70
2023-02-09T00:14:12.872Z,18.27
2023-02-09T00:16:41.828Z,17.93
2023-02-09T00:19:10.446Z,18.30
2023-02-09T00:21:38.994Z,18.30
2023-02-09T00:24:08.011Z,17.70
2023-02-09T00:26:36.216Z,17.63
2023-02-09T00:29:04.761Z,17.73
2023-02-09T00:31:34.528Z,17.80
2023-02-09T00:34:03.130Z,18.03
2023-02-09T00:36:31.520Z,17.60
2023-02-09T00:39:00.657Z,17.60
2023-02-09T00:41:46.857Z,17.83
2023-02-09T00:44:15.057Z,20.53
2023-02-09T00:46:44.787Z,18.60
2023-02-09T00:49:12.849Z,18.03
2023-02-09T00:51:40.985Z,17.63
2023-02-09T00:54:09.175Z,18.03
2023-02-09T00:56:37.377Z,20.53
2023-02-09T00:59:05.442Z,17.80
2023-02-09T01:01:33.718Z,17.60
2023-02-09T01:04:03.230Z,17.87
2023-02-09T01:06:31.508Z,17.90
2023-02-09T01:08:59.839Z,17.63
2023-02-09T01:11:29.840Z,18.30
2023-02-09T01:13:59.296Z,18.00
2023-02-09T01:16:30.391Z,17.60
2023-02-09T01:19:02.166Z,18.00
2023-02-09T01:21:30.960Z,18.80
2023-02-09T01:23:59.469Z,18.80
2023-02-09T01:26:27.590Z,17.80
2023-02-09T01:28:55.838Z,20.10
2023-02-09T01:31:26.742Z,18.07
2023-02-09T01:33:56.442Z,18.20
2023-02-09T01:36:26.721Z,18.40
2023-02-09T01:38:56.331Z,18.93
2023-02-09T01:41:24.911Z,18.17
2023-02-09T01:43:59.077Z,18.40
2023-02-09T01:46:28.991Z,18.83
2023-02-09T01:49:03.810Z,18.90
2023-02-09T01:51:37.389Z,18.47
2023-02-09T01:54:09.535Z,18.00
2023-02-09T01:56:40.388Z,18.60
2023-02-09T01:59:09.199Z,18.10
2023-02-09T02:01:38.148Z,18.33
2023-02-09T02:04:07.407Z,18.00
2023-02-09T02:06:37.956Z,18.20
2023-02-09T02:09:09.952Z,17.90
2023-02-09T02:11:38.912Z,18.73
2023-02-09T02:14:07.079Z,18.67
2023-02-09T02:16:49.610Z,18.77
2023-02-09T02:19:40.229Z,19.93
2023-02-09T02:22:36.502Z,20.17
2023-02-09T02:25:38.003Z,18.40
2023-02-09T02:28:28.073Z,19.10
2023-02-09T02:31:25.592Z,18.80
2023-02-09T02:34:04.366Z,18.63
2023-02-09T02:36:38.436Z,18.80
2023-02-09T02:39:14.541Z,18.30
2023-02-09T02:42:08.707Z,18.80
2023-02-09T02:44:41.421Z,18.50
2023-02-09T02:47:12.400Z,18.30
2023-02-09T02:49:45.580Z,18.50
2023-02-09T02:52:13.803Z,18.67
2023-02-09T02:54:48.677Z,17.80
2023-02-09T02:57:21.727Z,18.20
2023-02-09T02:59:53.870Z,18.27
2023-02-09T03:02:26.079Z,18.80
2023-02-09T03:04:57.816Z,18.70
2023-02-09T03:07:26.004Z,18.07
2023-02-09T03:09:56.319Z,18.53
2023-02-09T03:12:35.393Z,18.17
2023-02-09T03:15:15.664Z,18.53
2023-02-09T03:17:49.340Z,18.20
2023-02-09T03:20:29.279Z,18.43
2023-02-09T03:23:02.801Z,18.43
2023-02-09T03:25:33.693Z,18.60
2023-02-09T03:28:06.795Z,19.00
2023-02-09T03:30:36.819Z,18.40
2023-02-09T03:33:06.167Z,18.50
2023-02-09T03:35:40.380Z,18.57
2023-02-09T03:38:08.603Z,19.37
2023-02-09T03:40:36.936Z,18.60
2023-02-09T03:43:05.051Z,20.20
2023-02-09T03:45:33.136Z,18.80
2023-02-09T03:48:01.708Z,19.17
2023-02-09T03:50:30.450Z,18.80
2023-02-09T03:53:00.108Z,19.43
2023-02-09T03:55:28.590Z,18.53
2023-02-09T03:57:56.735Z,18.33
2023-02-09T04:00:24.932Z,18.97
2023-02-09T04:02:53.043Z,19.37
2023-02-09T04:05:23.034Z,19.50
2023-02-09T04:07:51.444Z,18.60
2023-02-09T04:10:21.148Z,18.70
2023-02-09T04:12:49.278Z,19.10
2023-02-09T04:15:17.512Z,18.43
2023-02-09T04:17:45.613Z,18.90
2023-02-09T04:20:13.702Z,18.60
2023-02-09T04:22:41.805Z,19.47
2023-02-09T04:25:09.876Z,18.90
2023-02-09T04:27:39.390Z,18.60
2023-02-09T04:30:08.700Z,19.30
2023-02-09T04:32:36.799Z,20.90
2023-02-09T04:35:05.089Z,18.80
2023-02-09T04:37:33.229Z,18.50
2023-02-09T04:40:01.394Z,20.03
2023-02-09T04:42:29.513Z,19.47
2023-02-09T04:44:59.257Z,19.40
2023-02-09T04:47:27.490Z,20.07
2023-02-09T04:49:55.611Z,19.10
2023-02-09T04:52:23.659Z,19.20
2023-02-09T04:54:51.865Z,18.83
2023-02-09T04:57:37.731Z,18.47
2023-02-09T05:00:08.651Z,21.40
2023-02-09T05:02:37.895Z,19.70
2023-02-09T05:05:06.457Z,18.70
2023-02-09T05:07:34.633Z,19.23
2023-02-09T05:10:02.808Z,21.43
2023-02-09T05:12:30.884Z,20.73
2023-02-09T05:14:58.920Z,20.73
2023-02-09T05:17:28.461Z,18.33
2023-02-09T05:19:56.615Z,19.37
2023-02-09T05:22:24.746Z,18.70
2023-02-09T05:24:52.876Z,18.73
2023-02-09T05:27:20.947Z,18.83
2023-02-09T05:29:49.083Z,19.03
2023-02-09T05:32:17.556Z,18.77
2023-02-09T05:34:48.192Z,19.30
2023-02-09T05:37:17.302Z,18.40
2023-02-09T05:39:45.409Z,18.07
2023-02-09T05:42:17.200Z,18.00
2023-02-09T05:44:46.802Z,19.90
2023-02-09T05:47:16.851Z,19.47
2023-02-09T05:49:45.234Z,17.80
2023-02-09T05:52:15.177Z,18.30
2023-02-09T05:54:43.506Z,18.60
2023-02-09T05:57:11.740Z,18.70
2023-02-09T05:59:40.037Z,19.13
2023-02-09T06:02:08.320Z,19.00
2023-02-09T06:04:37.034Z,19.40
2023-02-09T06:07:05.651Z,19.47
2023-02-09T06:09:35.242Z,22.73
2023-02-09T06:12:03.426Z,19.60
2023-02-09T06:14:31.502Z,19.17
2023-02-09T06:16:59.686Z,19.10
2023-02-09T06:19:27.951Z,20.07
2023-02-09T06:21:56.095Z,19.43
2023-02-09T06:24:24.183Z,20.57
2023-02-09T06:26:53.631Z,19.87
2023-02-09T06:29:21.658Z,20.03
2023-02-09T06:31:50.039Z,19.77
2023-02-09T06:34:18.332Z,20.57
2023-02-09T06:36:46.442Z,20.00
2023-02-09T06:39:14.495Z,20.17
2023-02-09T06:41:42.600Z,19.20
2023-02-09T06:44:13.280Z,20.37
2023-02-09T06:46:41.441Z,18.80
2023-02-09T06:49:09.713Z,18.60
2023-02-09T06:51:38.522Z,19.20
2023-02-09T06:54:06.972Z,18.43
2023-02-09T06:56:35.256Z,17.80
2023-02-09T06:59:03.432Z,19.13
2023-02-09T07:01:32.999Z,18.83
2023-02-09T07:04:01.153Z,18.40
2023-02-09T07:06:29.308Z,18.03
2023-02-09T07:08:57.405Z,18.53
2023-02-09T07:11:25.455Z,17.63
2023-02-09T07:13:53.652Z,18.73
2023-02-09T07:16:21.920Z,18.85
2023-02-09T07:18:51.300Z,17.70
2023-02-09T07:21:21.637Z,19.63
2023-02-09T07:23:49.892Z,17.10
2023-02-09T07:26:19.065Z,17.10
2023-02-09T07:28:47.630Z,18.80
2023-02-09T07:31:17.231Z,18.43
2023-02-09T07:33:45.791Z,17.40
2023-02-09T07:36:17.428Z,17.90
2023-02-09T07:38:46.133Z,19.20
2023-02-09T07:41:16.440Z,17.83
2023-02-09T07:43:44.592Z,17.20
2023-02-09T07:46:15.014Z,21.10
2023-02-09T07:48:43.210Z,17.70
2023-02-09T07:51:15.896Z,17.90
2023-02-09T07:53:44.183Z,17.40
2023-02-09T07:56:12.890Z,18.53
2023-02-09T07:58:41.222Z,18.00
2023-02-09T08:01:12.366Z,19.17
2023-02-09T08:03:43.281Z,18.23
2023-02-09T08:06:19.650Z,18.93
2023-02-09T08:08:49.184Z,18.10
2023-02-09T08:11:21.216Z,18.70
2023-02-09T08:13:50.945Z,18.60
2023-02-09T08:16:23.399Z,18.50
2023-02-09T08:18:55.671Z,18.17
2023-02-09T08:21:27.722Z,18.37
2023-02-09T08:23:57.932Z,18.80
2023-02-09T08:26:26.200Z,19.00
2023-02-09T08:28:55.260Z,18.80
2023-02-09T08:31:23.607Z,18.70
2023-02-09T08:33:52.284Z,18.30
2023-02-09T08:36:21.425Z,18.40
2023-02-09T08:38:51.237Z,18.30
2023-02-09T08:41:19.962Z,18.50
2023-02-09T08:43:51.717Z,18.90
2023-02-09T08:46:20.658Z,19.00
2023-02-09T08:48:48.963Z,18.20
2023-02-09T08:51:17.714Z,18.00
2023-02-09T08:53:52.314Z,18.73
2023-02-09T08:56:23.244Z,18.30
2023-02-09T08:58:51.603Z,18.50
2023-02-09T09:01:19.925Z,17.60
2023-02-09T09:03:48.157Z,17.70
2023-02-09T09:06:16.527Z,18.60
2023-02-09T09:08:44.777Z,17.90
2023-02-09T09:11:14.936Z,18.83
2023-02-09T09:13:45.063Z,18.70
2023-02-09T09:16:17.620Z,17.63
2023-02-09T09:18:46.254Z,18.03
2023-02-09T09:21:15.156Z,18.10
2023-02-09T09:23:43.332Z,19.70
2023-02-09T09:26:11.813Z,18.27
2023-02-09T09:28:40.632Z,17.70
2023-02-09T09:31:12.049Z,18.53
2023-02-09T09:33:42.932Z,18.93
2023-02-09T09:36:12.963Z,17.90
2023-02-09T09:38:41.738Z,18.00
2023-02-09T09:41:21.165Z,17.57
2023-02-09T09:43:49.811Z,17.70
2023-02-09T09:46:22.327Z,18.70
2023-02-09T09:48:54.141Z,20.23
2023-02-09T09:51:26.809Z,17.40
2023-02-09T09:53:58.962Z,18.70
2023-02-09T09:56:31.830Z,17.60
2023-02-09T09:59:01.098Z,17.97
2023-02-09T10:01:33.264Z,17.80
2023-02-09T10:04:07.742Z,17.90
2023-02-09T10:06:35.949Z,19.00
2023-02-09T10:09:07.313Z,19.30
2023-02-09T10:11:42.409Z,17.63
2023-02-09T10:14:11.343Z,17.83
2023-02-09T10:16:41.697Z,17.77
2023-02-09T10:19:19.629Z,17.43
2023-02-09T10:21:48.902Z,18.10
2023-02-09T10:24:23.142Z,18.73
2023-02-09T10:27:05.810Z,17.80
2023-02-09T10:29:34.010Z,17.50
2023-02-09T10:32:07.828Z,17.80
2023-02-09T10:34:44.929Z,17.90
2023-02-09T10:37:22.796Z,17.70
2023-02-09T10:40:08.649Z,18.47
2023-02-09T10:42:39.047Z,17.43
2023-02-09T10:45:14.700Z,17.50
2023-02-09T10:47:57.214Z,17.50
2023-02-09T10:50:25.329Z,18.77
2023-02-09T10:53:00.112Z,17.50
2023-02-09T10:55:35.416Z,17.27
2023-02-09T10:58:13.087Z,17.70
2023-02-09T11:00:50.812Z,17.40
2023-02-09T11:03:22.512Z,17.57
2023-02-09T11:05:59.898Z,17.60
2023-02-09T11:08:39.553Z,19.13
2023-02-09T11:11:13.977Z,17.63
2023-02-09T11:13:43.081Z,17.30
2023-02-09T11:16:48.241Z,17.50
2023-02-09T11:19:30.093Z,17.70
2023-02-09T11:22:07.334Z,17.60
2023-02-09T11:24:59.204Z,17.27
2023-02-09T11:27:39.352Z,17.50
2023-02-09T11:30:24.058Z,17.37
2023-02-09T11:32:55.774Z,18.83
2023-02-09T11:35:34.141Z,18.33
2023-02-09T11:38:06.599Z,19.10
2023-02-09T11:40:39.080Z,17.50
2023-02-09T11:43:16.826Z,17.50
2023-02-09T11:45:47.896Z,17.33
2023-02-09T11:48:23.471Z,19.30
2023-02-09T11:51:02.768Z,17.10
2023-02-09T11:53:40.001Z,18.23
2023-02-09T11:56:11.914Z,17.60
2023-02-09T11:58:47.979Z,17.30
2023-02-09T12:01:39.072Z,17.43
2023-02-09T12:04:16.626Z,18.30
2023-02-09T12:06:49.948Z,19.60
2023-02-09T12:09:30.835Z,17.90
2023-02-09T12:12:08.866Z,17.27
2023-02-09T12:14:48.038Z,19.63
2023-02-09T12:17:20.722Z,17.17
2023-02-09T12:19:57.089Z,17.70
2023-02-09T12:23:02.126Z,17.80
2023-02-09T12:25:37.246Z,18.03
2023-02-09T12:28:12.952Z,17.90
2023-02-09T12:31:03.726Z,17.77
2023-02-09T12:33:34.569Z,19.40
2023-02-09T12:36:06.063Z,18.03
2023-02-09T12:39:07.936Z,17.70
2023-02-09T12:42:12.903Z,17.80
2023-02-09T12:44:56.238Z,17.97
2023-02-09T12:47:44.806Z,17.90
2023-02-09T12:50:34.723Z,17.63
2023-02-09T12:53:36.268Z,17.23
2023-02-09T12:56:27.483Z,17.60
2023-02-09T12:59:12.306Z,17.60
2023-02-09T13:02:15.934Z,17.50
2023-02-09T13:04:58.701Z,17.50
2023-02-09T13:07:36.380Z,17.97
2023-02-09T13:10:17.054Z,17.20
2023-02-09T13:12:53.864Z,17.30
2023-02-09T13:15:22.080Z,17.50
2023-02-09T13:18:05.838Z,18.10
2023-02-09T13:21:03.310Z,18.00
2023-02-09T13:23:37.098Z,17.10
2023-02-09T13:26:19.276Z,17.10
2023-02-09T13:28:48.880Z,17.30
2023-02-09T13:31:36.589Z,18.87
2023-02-09T13:34:19.310Z,17.50
2023-02-09T13:36:56.666Z,18.53
2023-02-09T13:39:27.177Z,16.90
2023-02-09T13:41:56.299Z,17.00
2023-02-09T13:44:29.910Z,16.83
2023-02-09T13:46:59.632Z,17.60
2023-02-09T13:49:29.661Z,16.60
2023-02-09T13:52:14.896Z,17.90
2023-02-09T13:54:44.194Z,17.30
2023-02-09T13:57:19.918Z,17.00
2023-02-09T13:59:50.154Z,16.73
2023-02-09T14:02:22.216Z,17.30
2023-02-09T14:04:54.811Z,16.80
2023-02-09T14:07:26.162Z,16.70
2023-02-09T14:09:59.317Z,16.57
2023-02-09T14:12:52.795Z,16.43
2023-02-09T14:15:45.004Z,16.30
2023-02-09T14:18:24.008Z,17.30
2023-02-09T14:21:23.226Z,16.87
2023-02-09T14:24:12.870Z,17.33
2023-02-09T14:26:45.502Z,17.43
2023-02-09T14:29:18.149Z,17.07
2023-02-09T14:31:50.181Z,17.97
2023-02-09T14:34:30.159Z,18.03
2023-02-09T14:37:01.539Z,17.07
2023-02-09T14:39:31.858Z,17.10
2023-02-09T14:42:03.042Z,16.97
2023-02-09T14:44:31.696Z,17.07
2023-02-09T14:47:02.492Z,15.90
2023-02-09T14:49:31.780Z,16.90
2023-02-09T14:52:06.841Z,16.90
2023-02-09T14:54:43.230Z,18.23
2023-02-09T14:57:13.214Z,17.20
2023-02-09T14:59:41.247Z,18.10
2023-02-09T15:02:18.043Z,17.13
2023-02-09T15:04:46.326Z,16.93
2023-02-09T15:07:18.803Z,16.87
2023-02-09T15:09:47.567Z,16.83
2023-02-09T15:12:22.676Z,17.53
2023-02-09T15:14:53.252Z,17.13
2023-02-09T15:17:25.725Z,19.23
2023-02-09T15:19:53.930Z,16.90
2023-02-09T15:22:22.351Z,16.90
2023-02-09T15:24:54.266Z,17.63
2023-02-09T15:27:28.017Z,17.30
2023-02-09T15:29:59.754Z,17.97
2023-02-09T15:32:30.139Z,17.60
2023-02-09T15:34:58.326Z,18.63
2023-02-09T15:37:28.166Z,18.20
2023-02-09T15:39:59.640Z,19.50
2023-02-09T15:42:45.531Z,17.83
2023-02-09T15:45:37.134Z,19.00
2023-02-09T15:48:07.295Z,18.50
2023-02-09T15:50:37.600Z,16.63
2023-02-09T15:53:08.820Z,17.97
2023-02-09T15:55:38.118Z,16.77
2023-02-09T15:58:13.741Z,16.83
2023-02-09T16:00:42.206Z,17.50
2023-02-09T16:03:15.823Z,18.53
2023-02-09T16:05:44.706Z,17.77
2023-02-09T16:08:20.529Z,18.30
2023-02-09T16:10:49.166Z,18.10
2023-02-09T16:13:18.732Z,19.20
2023-02-09T16:15:47.402Z,18.13
2023-02-09T16:18:16.851Z,18.73
2023-02-09T16:20:47.786Z,18.17
2023-02-09T16:23:20.998Z,19.77
2023-02-09T16:25:50.766Z,18.73
2023-02-09T16:28:19.174Z,18.37
2023-02-09T16:30:53.346Z,17.97
2023-02-09T16:33:24.727Z,19.50
2023-02-09T16:35:55.837Z,18.40
2023-02-09T16:38:25.665Z,19.20
2023-02-09T16:40:55.442Z,19.70
2023-02-09T16:43:24.679Z,19.07
2023-02-09T16:46:03.377Z,20.43
2023-02-09T16:48:34.993Z,21.30
2023-02-09T16:51:03.602Z,20.63
2023-02-09T16:53:36.103Z,20.60
2023-02-09T16:56:07.212Z,20.23
2023-02-09T16:58:35.361Z,21.30
2023-02-09T17:01:04.357Z,20.93
2023-02-09T17:03:36.859Z,21.33
2023-02-09T17:06:05.392Z,23.40
2023-02-09T17:08:35.689Z,24.23
2023-02-09T17:11:05.109Z,25.40
2023-02-09T17:13:34.149Z,23.30
2023-02-09T17:16:04.984Z,23.50
2023-02-09T17:18:38.429Z,23.70
2023-02-09T17:21:10.959Z,25.90
2023-02-09T17:23:39.064Z,24.87
2023-02-09T17:26:07.374Z,24.93
2023-02-09T17:28:35.627Z,26.40
2023-02-09T17:31:10.490Z,27.90
2023-02-09T17:33:40.139Z,25.90
2023-02-09T17:36:25.880Z,26.37
2023-02-09T17:38:56.678Z,26.10
2023-02-09T17:41:32.789Z,30.05
2023-02-09T17:44:22.228Z,27.73
2023-02-09T17:46:57.199Z,27.10
2023-02-09T17:49:26.843Z,27.43
2023-02-09T17:51:55.057Z,28.75
2023-02-09T17:54:23.265Z,28.73
2023-02-09T17:56:51.304Z,28.37
2023-02-09T17:59:20.365Z,26.87
2023-02-09T18:01:50.703Z,27.10
2023-02-09T18:04:21.464Z,28.07
2023-02-09T18:06:51.139Z,28.33
2023-02-09T18:09:19.399Z,29.47
2023-02-09T18:12:02.056Z,29.10
2023-02-09T18:14:32.611Z,28.83
2023-02-09T18:17:01.098Z,32.10
2023-02-09T18:19:29.443Z,31.90
2023-02-09T18:22:01.069Z,32.40
2023-02-09T18:24:31.937Z,33.17
2023-02-09T18:27:00.849Z,32.30
2023-02-09T18:29:30.280Z,37.40
2023-02-09T18:31:59.064Z,38.17
2023-02-09T18:34:27.323Z,36.07
2023-02-09T18:36:55.560Z,36.30
2023-02-09T18:39:25.101Z,37.03
2023-02-09T18:41:55.086Z,37.23
2023-02-09T18:44:28.636Z,37.40
2023-02-09T18:46:57.313Z,39.80
2023-02-09T18:49:25.439Z,40.80
2023-02-09T18:51:53.625Z,41.20
2023-02-09T18:54:21.767Z,45.40
2023-02-09T18:56:52.820Z,43.87
2023-02-09T18:59:20.997Z,46.10
2023-02-09T19:01:50.006Z,44.83
2023-02-09T19:04:18.709Z,47.17
2023-02-09T19:06:46.776Z,52.88
2023-02-09T19:09:14.987Z,52.97
2023-02-09T19:11:43.222Z,50.80
2023-02-09T19:14:30.323Z,52.50
2023-02-09T19:16:58.458Z,50.80
2023-02-09T19:19:26.590Z,49.07
2023-02-09T19:21:55.615Z,49.80
2023-02-09T19:24:23.718Z,50.87
2023-02-09T19:26:51.896Z,51.67
2023-02-09T19:29:22.656Z,55.63
2023-02-09T19:31:50.870Z,55.57
2023-02-09T19:34:18.976Z,58.80
2023-02-09T19:36:47.370Z,59.80
2023-02-09T19:39:17.062Z,60.60
2023-02-09T19:41:47.072Z,64.80
2023-02-09T19:44:15.520Z,62.87
2023-02-09T19:46:45.605Z,63.60
2023-02-09T19:49:13.800Z,63.97
2023-02-09T19:51:41.896Z,68.37
2023-02-09T19:54:10.089Z,70.87
2023-02-09T19:56:38.443Z,72.70
2023-02-09T19:59:06.581Z,69.23
2023-02-09T20:01:34.771Z,72.67
2023-02-09T20:04:04.251Z,74.80
2023-02-09T20:06:33.897Z,76.43
2023-02-09T20:09:02.560Z,76.83
2023-02-09T20:11:30.734Z,75.40
2023-02-09T20:14:01.956Z,76.30
2023-02-09T20:16:30.361Z,78.00
2023-02-09T20:18:58.412Z,79.33
2023-02-09T20:21:28.066Z,77.07
2023-02-09T20:23:56.694Z,78.57
2023-02-09T20:26:29.074Z,82.50
2023-02-09T20:28:58.238Z,78.60
2023-02-09T20:31:29.193Z,77.27
2023-02-09T20:33:57.514Z,79.10
2023-02-09T20:36:27.169Z,76.70
2023-02-09T20:38:55.289Z,77.63
2023-02-09T20:41:23.521Z,78.00
2023-02-09T20:44:09.282Z,76.87
2023-02-09T20:46:55.020Z,82.27
2023-02-09T20:49:25.826Z,79.10
2023-02-09T20:51:55.474Z,81.00
2023-02-09T20:54:23.965Z,81.43
2023-02-09T20:56:52.253Z,79.23
2023-02-09T20:59:20.459Z,80.27
2023-02-09T21:01:48.903Z,81.10
2023-02-09T21:04:18.016Z,80.80
2023-02-09T21:06:46.267Z,81.83
2023-02-09T21:09:16.837Z,85.63
2023-02-09T21:11:45.074Z,89.50
2023-02-09T21:14:21.978Z,84.20
2023-02-09T21:16:56.269Z,82.63
2023-02-09T21:19:25.312Z,81.77
2023-02-09T21:21:53.553Z,87.20
2023-02-09T21:24:23.384Z,86.80
2023-02-09T21:26:51.747Z,89.17
2023-02-09T21:29:19.916Z,90.50
2023-02-09T21:31:48.126Z,90.10
2023-02-09T21:34:17.060Z,88.07
2023-02-09T21:36:45.282Z,90.50
2023-02-09T21:39:14.285Z,89.40
2023-02-09T21:42:01.432Z,89.07
2023-02-09T21:44:30.357Z,92.43
2023-02-09T21:46:58.449Z,94.00
2023-02-09T21:49:26.528Z,96.23
2023-02-09T21:51:54.649Z,93.00
2023-02-09T21:54:25.544Z,96.03
2023-02-09T21:56:56.111Z,94.13
2023-02-09T21:59:24.244Z,96.20
2023-02-09T22:01:53.447Z,94.67
2023-02-09T22:04:21.985Z,93.93
2023-02-09T22:06:50.300Z,96.27
2023-02-09T22:09:20.190Z,97.97
2023-02-09T22:11:48.292Z,93.57
2023-02-09T22:14:18.176Z,95.97
2023-02-09T22:16:46.780Z,94.30
2023-02-09T22:19:14.968Z,96.23
2023-02-09T22:21:43.117Z,96.83
2023-02-09T22:24:13.645Z,99.40
2023-02-09T22:26:41.866Z,98.47
2023-02-09T22:29:11.377Z,101.27
2023-02-09T22:31:41.334Z,101.33
2023-02-09T22:34:09.907Z,95.83
2023-02-09T22:36:39.827Z,102.60
2023-02-09T22:39:08.934Z,99.40
2023-02-09T22:41:37.457Z,97.90
2023-02-09T22:44:07.585Z,98.63
2023-02-09T22:46:37.567Z,101.17
2023-02-09T22:49:09.332Z,97.20
2023-02-09T22:51:37.893Z,99.30
2023-02-09T22:54:07.055Z,93.73
2023-02-09T22:56:35.768Z,96.50
2023-02-09T22:59:04.007Z,96.83
2023-02-09T23:01:32.290Z,94.83
2023-02-09T23:04:00.596Z,96.10
2023-02-09T23:06:30.698Z,98.17
2023-02-09T23:09:00.969Z,101.27
2023-02-09T23:11:30.232Z,102.87
2023-02-09T23:14:14.214Z,98.37
2023-02-09T23:16:43.939Z,96.37
2023-02-09T23:19:14.366Z,96.40
2023-02-09T23:21:45.689Z,98.03
2023-02-09T23:24:15.072Z,97.47
2023-02-09T23:26:43.672Z,100.60
2023-02-09T23:29:14.540Z,96.83
2023-02-09T23:31:43.788Z,99.43
2023-02-09T23:34:14.820Z,99.57
2023-02-09T23:36:44.681Z,97.80
2023-02-09T23:39:15.446Z,97.03
2023-02-09T23:41:43.825Z,99.40
2023-02-09T23:44:12.757Z,100.23
2023-02-09T23:46:41.628Z,102.60
2023-02-09T23:49:09.850Z,105.33
2023-02-09T23:51:38.155Z,100.40
2023-02-09T23:54:08.404Z,104.40
2023-02-09T23:56:38.070Z,104.20
2023-02-09T23:59:07.528Z,103.53
